Terminal Aerodrome Forecast
Issued by NWS

Home | Current Version | Previous Version | Text Only | Print | Product List | Glossary On
Versions: 1 2 3 4 5 6 7 8 9 10 11 12 13 14 15 16 17 18
000
FTUS46 KSTO 072350 CCA
TAFSCK
TAF COR
KSCK 072350Z 0800/0824 12006KT P6SM -RA OVC060
     FM080200 12003KT 4SM -RA OVC050
     FM080800 13012KT 4SM -RA BR OVC025
     FM081200 14012G22KT 4SM -RA BR OVC025=

USA.gov is the U.S. government's official web portal to all federal, state and local government web resources and services.